Time;durP1;ratioP1;P1;durP2;ratioP2;P2;SDS_P1;SDS_P2;PMS_P1;PMS_P2;Temp;Humidity;BMP_temperature;BMP_pressure;BME280_temperature;BME280_humidity;BME280_pressure;Samples;Min_cycle;Max_cycle;Signal;HPM_P1;HPM_P2
2023/08/01 00:00:00;;;;;;;55.03;21.45;;;16.10;99.90;;;;;;5023949;28;20034;-70
2023/08/01 00:02:25;;;;;;;51.25;20.92;;;16.10;99.90;;;;;;5023726;28;20045;-71
2023/08/01 00:04:51;;;;;;;50.58;21.02;;;16.10;99.90;;;;;;5024361;28;20387;-70
2023/08/01 00:07:17;;;;;;;51.90;21.42;;;16.10;99.90;;;;;;5024089;28;20082;-69
2023/08/01 00:09:43;;;;;;;56.08;22.92;;;16.10;99.90;;;;;;5023769;28;20129;-69
2023/08/01 00:12:08;;;;;;;56.33;22.77;;;16.10;99.90;;;;;;5023295;28;20048;-70
2023/08/01 00:14:35;;;;;;;53.60;21.65;;;16.10;99.90;;;;;;5023385;28;20022;-70
2023/08/01 00:17:01;;;;;;;50.60;21.98;;;16.10;99.90;;;;;;5023423;28;20022;-70
2023/08/01 00:19:28;;;;;;;53.90;22.58;;;16.10;99.90;;;;;;5023785;28;20026;-70
2023/08/01 00:21:53;;;;;;;62.58;22.88;;;16.10;99.90;;;;;;5023473;28;20034;-69
2023/08/01 00:24:19;;;;;;;56.50;22.42;;;16.10;99.90;;;;;;5023625;28;20425;-71
2023/08/01 00:26:45;;;;;;;58.03;23.05;;;16.20;99.90;;;;;;5023734;28;20034;-70
2023/08/01 00:29:11;;;;;;;60.80;22.60;;;16.10;99.90;;;;;;5023470;28;20038;-67
2023/08/01 00:31:37;;;;;;;51.15;20.42;;;16.10;99.90;;;;;;5021881;28;20460;-70
2023/08/01 00:34:02;;;;;;;57.85;20.65;;;16.10;99.90;;;;;;5023479;28;20022;-69
2023/08/01 00:36:28;;;;;;;54.00;21.00;;;16.10;99.90;;;;;;5022903;28;20026;-70
2023/08/01 00:38:54;;;;;;;55.50;21.65;;;16.10;99.90;;;;;;5023656;28;20040;-70
2023/08/01 00:41:20;;;;;;;53.05;20.60;;;16.10;99.90;;;;;;5022925;28;20060;-69
2023/08/01 00:43:46;;;;;;;48.53;18.60;;;16.10;99.90;;;;;;5023070;28;20014;-69
2023/08/01 00:46:11;;;;;;;50.35;18.35;;;16.10;99.90;;;;;;5023455;28;20041;-71
2023/08/01 00:48:37;;;;;;;47.67;18.75;;;16.10;99.90;;;;;;5022303;28;20025;-68
2023/08/01 00:51:07;;;;;;;47.65;17.83;;;16.10;99.90;;;;;;5022364;28;20038;-70
2023/08/01 00:53:32;;;;;;;49.85;19.05;;;16.10;99.90;;;;;;5023005;28;20029;-68
2023/08/01 00:55:59;;;;;;;49.17;18.73;;;16.10;99.90;;;;;;5022742;28;20037;-69
2023/08/01 00:58:25;;;;;;;50.30;18.88;;;16.10;99.90;;;;;;5022427;28;20487;-69
2023/08/01 01:00:50;;;;;;;52.42;19.52;;;16.10;99.90;;;;;;5023060;28;20029;-71
2023/08/01 01:03:17;;;;;;;55.35;19.40;;;16.10;99.90;;;;;;5022697;28;20049;-69
2023/08/01 01:06:05;;;;;;;50.70;18.92;;;16.10;99.90;;;;;;5021173;28;20084;-69
2023/08/01 01:08:31;;;;;;;49.83;18.40;;;16.10;99.90;;;;;;5022221;28;20026;-69
2023/08/01 01:10:56;;;;;;;50.13;18.70;;;16.10;99.90;;;;;;5020771;28;20042;-70
2023/08/01 01:13:22;;;;;;;47.15;18.13;;;16.10;99.90;;;;;;5021119;28;20102;-72
2023/08/01 01:15:48;;;;;;;45.33;19.08;;;16.10;99.90;;;;;;5021163;28;20057;-69
2023/08/01 01:18:13;;;;;;;50.83;18.23;;;16.00;99.90;;;;;;5021793;28;20045;-70
2023/08/01 01:20:39;;;;;;;43.65;18.02;;;16.10;99.90;;;;;;5022577;28;20776;-69
2023/08/01 01:23:06;;;;;;;43.03;18.25;;;16.00;99.90;;;;;;5020479;28;20045;-68
2023/08/01 01:25:32;;;;;;;46.17;18.08;;;16.10;99.90;;;;;;5022196;28;20025;-70
2023/08/01 01:27:59;;;;;;;45.50;18.35;;;16.00;99.90;;;;;;5021134;28;20053;-69
2023/08/01 01:30:27;;;;;;;48.88;19.77;;;16.00;99.90;;;;;;5019676;28;20037;-69
2023/08/01 01:32:53;;;;;;;48.28;19.30;;;16.00;99.90;;;;;;5020624;28;20475;-69
2023/08/01 01:35:18;;;;;;;48.13;18.52;;;16.00;99.90;;;;;;5022455;28;20379;-70
2023/08/01 01:37:44;;;;;;;50.22;19.23;;;16.00;99.90;;;;;;5021009;28;20034;-68
2023/08/01 01:40:10;;;;;;;45.90;17.92;;;16.00;99.90;;;;;;5022166;28;20089;-69
2023/08/01 01:42:36;;;;;;;49.63;18.15;;;16.00;99.90;;;;;;5021774;28;20052;-71
2023/08/01 01:45:02;;;;;;;45.70;18.05;;;16.00;99.90;;;;;;5021339;28;20018;-69
2023/08/01 01:47:27;;;;;;;42.75;16.92;;;16.00;99.90;;;;;;5021916;28;20121;-70
2023/08/01 01:49:53;;;;;;;48.50;18.20;;;16.00;99.90;;;;;;5022134;28;20034;-71
2023/08/01 01:52:19;;;;;;;44.50;17.15;;;16.00;99.90;;;;;;5021688;28;20052;-70
2023/08/01 01:54:45;;;;;;;44.10;17.92;;;16.00;99.90;;;;;;5019707;28;20060;-71
2023/08/01 01:57:10;;;;;;;41.47;17.15;;;16.00;99.90;;;;;;5021448;28;20114;-69
2023/08/01 01:59:36;;;;;;;42.42;17.08;;;16.00;99.90;;;;;;5021531;28;20049;-68
2023/08/01 02:02:03;;;;;;;41.67;16.90;;;16.00;99.90;;;;;;5021438;28;20038;-69
2023/08/01 02:04:29;;;;;;;45.53;17.63;;;15.90;99.90;;;;;;5021387;28;20033;-69
2023/08/01 02:06:55;;;;;;;45.67;17.30;;;15.90;99.90;;;;;;5021604;28;20030;-69
2023/08/01 02:09:21;;;;;;;44.20;17.02;;;15.90;99.90;;;;;;5021944;28;20061;-69
2023/08/01 02:11:46;;;;;;;47.13;17.48;;;15.90;99.90;;;;;;5022045;28;20026;-71
2023/08/01 02:14:13;;;;;;;43.17;16.92;;;15.90;99.90;;;;;;5021658;28;20041;-68
2023/08/01 02:16:39;;;;;;;40.33;16.20;;;15.90;99.90;;;;;;5021377;28;20029;-70
2023/08/01 02:19:04;;;;;;;40.72;16.25;;;15.90;99.90;;;;;;5021895;28;20030;-72
2023/08/01 02:21:30;;;;;;;38.42;15.75;;;15.90;99.90;;;;;;5021259;28;20040;-69
2023/08/01 02:23:55;;;;;;;35.33;15.63;;;15.90;99.90;;;;;;5021582;28;20022;-69
2023/08/01 02:26:23;;;;;;;39.05;15.48;;;15.90;99.90;;;;;;5021896;28;20017;-70
2023/08/01 02:28:48;;;;;;;35.88;16.25;;;15.90;99.90;;;;;;5021252;28;20029;-70
2023/08/01 02:31:15;;;;;;;36.90;15.95;;;15.80;99.90;;;;;;5021573;28;20038;-69
2023/08/01 02:33:40;;;;;;;45.67;16.73;;;15.80;99.90;;;;;;5021323;28;20485;-69
2023/08/01 02:36:06;;;;;;;40.33;16.55;;;15.80;99.90;;;;;;5020754;28;20034;-69
2023/08/01 02:38:32;;;;;;;37.55;15.27;;;15.80;99.90;;;;;;5021812;28;20028;-69
2023/08/01 02:40:58;;;;;;;42.63;16.27;;;15.80;99.90;;;;;;5021411;28;20489;-70
2023/08/01 02:43:23;;;;;;;34.38;16.10;;;15.80;99.90;;;;;;5021277;28;20033;-68
2023/08/01 02:45:49;;;;;;;38.22;16.67;;;15.80;99.90;;;;;;5020664;28;20030;-70
2023/08/01 02:48:16;;;;;;;39.28;17.02;;;15.80;99.90;;;;;;5021417;28;20093;-69
2023/08/01 02:50:42;;;;;;;40.58;16.00;;;15.80;99.90;;;;;;5021122;28;20046;-70
2023/08/01 02:53:07;;;;;;;38.45;16.52;;;15.80;99.90;;;;;;5021305;28;20054;-69
2023/08/01 02:55:33;;;;;;;35.85;15.70;;;15.80;99.90;;;;;;5023814;28;20098;-69
2023/08/01 02:57:59;;;;;;;36.20;15.25;;;15.80;99.90;;;;;;5024594;28;20053;-69
2023/08/01 03:00:25;;;;;;;33.25;14.85;;;15.80;99.90;;;;;;5025308;28;20026;-69
2023/08/01 03:02:51;;;;;;;35.72;15.13;;;15.80;99.90;;;;;;5025088;28;20093;-69
2023/08/01 03:05:17;;;;;;;30.52;14.63;;;15.70;99.90;;;;;;5024938;28;20068;-70
2023/08/01 03:07:42;;;;;;;38.22;15.90;;;15.70;99.90;;;;;;5024504;28;20018;-68
2023/08/01 03:10:11;;;;;;;31.92;14.20;;;15.70;99.90;;;;;;5024809;28;20036;-69
2023/08/01 03:12:37;;;;;;;26.75;13.70;;;15.70;99.90;;;;;;5023883;28;20068;-69
2023/08/01 03:15:03;;;;;;;25.65;13.45;;;15.70;99.90;;;;;;5024504;28;20025;-69
2023/08/01 03:17:28;;;;;;;26.52;12.38;;;15.70;99.90;;;;;;5024108;28;20018;-70
2023/08/01 03:19:54;;;;;;;23.13;11.85;;;15.70;99.90;;;;;;5024578;28;20084;-69
2023/08/01 03:22:20;;;;;;;23.67;10.88;;;15.60;99.90;;;;;;5024625;28;20050;-70
2023/08/01 03:24:45;;;;;;;26.15;10.70;;;15.60;99.90;;;;;;5024397;28;20069;-69
2023/08/01 03:27:11;;;;;;;20.48;9.10;;;15.60;99.90;;;;;;5024709;28;20033;-69
2023/08/01 03:29:37;;;;;;;20.40;8.77;;;15.60;99.90;;;;;;5023965;28;20041;-69
2023/08/01 03:32:02;;;;;;;16.02;8.07;;;15.60;99.90;;;;;;5023900;28;20018;-69
2023/08/01 03:34:28;;;;;;;20.55;7.97;;;15.50;99.90;;;;;;5023740;28;20088;-70
2023/08/01 03:36:54;;;;;;;21.25;7.57;;;15.50;99.90;;;;;;5023141;28;20018;-70
2023/08/01 03:39:20;;;;;;;15.35;7.72;;;15.50;99.90;;;;;;5024268;28;20399;-70
2023/08/01 03:41:46;;;;;;;22.35;7.43;;;15.40;99.90;;;;;;5024392;28;20014;-69
2023/08/01 03:44:11;;;;;;;14.85;6.93;;;15.40;99.90;;;;;;5023876;28;20033;-70
2023/08/01 03:46:37;;;;;;;20.83;7.22;;;15.50;99.90;;;;;;5024108;28;20101;-69
2023/08/01 03:49:02;;;;;;;19.33;7.85;;;15.40;99.90;;;;;;5024032;28;20057;-69
2023/08/01 03:51:28;;;;;;;20.63;8.57;;;15.40;99.90;;;;;;5022196;28;20050;-70
2023/08/01 03:53:53;;;;;;;18.33;8.57;;;15.40;99.90;;;;;;5023714;28;20708;-70
2023/08/01 03:56:19;;;;;;;19.67;9.93;;;15.40;99.90;;;;;;5024105;28;20030;-70
2023/08/01 03:58:45;;;;;;;25.20;10.77;;;15.40;99.90;;;;;;5023817;28;20111;-71
2023/08/01 04:01:11;;;;;;;25.55;11.05;;;15.40;99.90;;;;;;5023798;28;20045;-69
2023/08/01 04:03:36;;;;;;;33.35;12.57;;;15.40;99.90;;;;;;5023524;28;20455;-69
2023/08/01 04:06:03;;;;;;;28.98;12.68;;;15.40;99.90;;;;;;5023102;28;20034;-69
2023/08/01 04:08:28;;;;;;;29.45;14.07;;;15.40;99.90;;;;;;5023884;28;20033;-69
2023/08/01 04:10:54;;;;;;;33.10;16.08;;;15.40;99.90;;;;;;5023936;28;20426;-69
2023/08/01 04:13:20;;;;;;;42.63;17.60;;;15.40;99.90;;;;;;5023608;28;20030;-69
2023/08/01 04:15:46;;;;;;;34.15;16.67;;;15.40;99.90;;;;;;5023415;28;20034;-70
2023/08/01 04:18:11;;;;;;;45.83;18.63;;;15.40;99.90;;;;;;5022088;28;20030;-68
2023/08/01 04:20:37;;;;;;;49.05;18.50;;;15.40;99.90;;;;;;5023433;28;20080;-69
2023/08/01 04:23:02;;;;;;;37.58;17.52;;;15.40;99.90;;;;;;5023491;28;20064;-69
2023/08/01 04:25:28;;;;;;;46.60;19.30;;;15.50;99.90;;;;;;5023499;28;20026;-69
2023/08/01 04:27:54;;;;;;;51.10;20.40;;;15.50;99.90;;;;;;5023539;28;20133;-68
2023/08/01 04:30:19;;;;;;;47.70;20.58;;;15.50;99.90;;;;;;5023342;28;21077;-70
2023/08/01 04:32:45;;;;;;;59.17;21.63;;;15.50;99.90;;;;;;5023610;28;20093;-69
2023/08/01 04:35:11;;;;;;;57.65;21.13;;;15.50;99.90;;;;;;5023294;28;20032;-69
2023/08/01 04:37:36;;;;;;;39.88;16.63;;;15.60;99.90;;;;;;5023834;28;20030;-69
2023/08/01 04:40:02;;;;;;;32.60;14.63;;;15.50;99.90;;;;;;5023085;28;20021;-68
2023/08/01 04:42:28;;;;;;;28.73;12.45;;;15.50;99.90;;;;;;5018332;28;20491;-69
2023/08/01 04:44:54;;;;;;;20.75;9.18;;;15.40;99.90;;;;;;5022275;28;20022;-69
2023/08/01 04:47:21;;;;;;;16.10;8.98;;;15.30;99.90;;;;;;5022716;28;20036;-70
2023/08/01 04:49:47;;;;;;;15.68;7.60;;;15.20;99.90;;;;;;5021070;28;20068;-68
2023/08/01 04:52:12;;;;;;;13.75;7.18;;;15.20;99.90;;;;;;5021502;28;20041;-68
2023/08/01 04:54:38;;;;;;;19.67;8.02;;;15.20;99.90;;;;;;5021600;28;20041;-68
2023/08/01 04:57:04;;;;;;;21.83;8.15;;;15.20;99.90;;;;;;5022185;28;20026;-69
2023/08/01 04:59:30;;;;;;;16.65;7.95;;;15.10;99.90;;;;;;5023206;28;20032;-69
2023/08/01 05:01:56;;;;;;;15.35;7.45;;;15.10;99.90;;;;;;5021651;28;20093;-69
2023/08/01 05:04:21;;;;;;;19.48;7.72;;;15.10;99.90;;;;;;5022646;28;20025;-69
2023/08/01 05:06:47;;;;;;;23.40;8.13;;;15.10;99.90;;;;;;5022164;28;20018;-70
2023/08/01 05:09:13;;;;;;;22.45;9.52;;;15.00;99.90;;;;;;5018838;28;20034;-69
2023/08/01 05:11:38;;;;;;;22.10;9.70;;;15.00;99.90;;;;;;5021975;28;20037;-70
2023/08/01 05:14:04;;;;;;;21.63;10.20;;;15.10;99.90;;;;;;5021494;28;20060;-69
2023/08/01 05:16:29;;;;;;;25.27;10.80;;;15.10;99.90;;;;;;5021744;28;20422;-70
2023/08/01 05:18:55;;;;;;;35.15;11.30;;;15.10;99.90;;;;;;5019885;28;20121;-69
2023/08/01 05:21:20;;;;;;;26.48;11.98;;;15.20;99.90;;;;;;5022688;28;20033;-69
2023/08/01 05:23:46;;;;;;;28.63;12.60;;;15.20;99.90;;;;;;5020621;28;20072;-70
2023/08/01 05:26:11;;;;;;;28.80;12.98;;;15.20;99.90;;;;;;5019625;28;20034;-70
2023/08/01 05:28:37;;;;;;;34.47;13.05;;;15.20;99.90;;;;;;5020230;28;21063;-70
2023/08/01 05:31:03;;;;;;;33.78;14.00;;;15.20;99.90;;;;;;5020432;28;20053;-69
2023/08/01 05:33:29;;;;;;;34.03;14.48;;;15.30;99.90;;;;;;5021317;28;20033;-70
2023/08/01 05:35:54;;;;;;;24.75;12.70;;;15.30;99.90;;;;;;5022686;28;20033;-68
2023/08/01 05:38:20;;;;;;;25.73;11.43;;;15.30;99.90;;;;;;5022712;28;20097;-69
2023/08/01 05:40:46;;;;;;;22.67;11.32;;;15.30;99.90;;;;;;5020443;28;20029;-69
2023/08/01 05:43:11;;;;;;;20.02;9.45;;;15.20;99.90;;;;;;5020134;28;20029;-68
2023/08/01 05:45:37;;;;;;;23.80;10.60;;;15.30;99.90;;;;;;5021021;28;20140;-69
2023/08/01 05:48:03;;;;;;;21.67;11.13;;;15.20;99.90;;;;;;5021135;28;20029;-69
2023/08/01 05:50:29;;;;;;;19.38;10.50;;;15.20;99.90;;;;;;5021290;28;20044;-68
2023/08/01 05:52:55;;;;;;;19.73;10.05;;;15.20;99.90;;;;;;5016276;28;20058;-69
2023/08/01 05:55:21;;;;;;;22.98;10.00;;;15.20;99.90;;;;;;5019650;28;20052;-69
2023/08/01 05:57:48;;;;;;;23.23;10.68;;;15.20;99.90;;;;;;5017855;28;20116;-68
2023/08/01 06:00:14;;;;;;;23.80;10.43;;;15.20;99.90;;;;;;5017216;28;20083;-70
2023/08/01 06:02:40;;;;;;;21.98;10.13;;;15.20;99.90;;;;;;5020700;28;20029;-70
2023/08/01 06:05:06;;;;;;;27.85;11.98;;;15.20;99.90;;;;;;5020370;28;20554;-70
2023/08/01 06:07:32;;;;;;;30.65;11.80;;;15.30;99.90;;;;;;5019814;28;20479;-69
2023/08/01 06:09:57;;;;;;;23.73;11.48;;;15.30;99.90;;;;;;5021251;28;20056;-68
2023/08/01 06:12:23;;;;;;;25.60;10.95;;;15.30;99.90;;;;;;5021022;28;20026;-69
2023/08/01 06:14:49;;;;;;;23.90;11.50;;;15.40;99.90;;;;;;5021205;28;20026;-68
2023/08/01 06:17:15;;;;;;;30.65;12.30;;;15.40;99.90;;;;;;5020015;28;20391;-69
2023/08/01 06:19:41;;;;;;;28.88;11.98;;;15.30;99.90;;;;;;5021569;28;20034;-68
2023/08/01 06:22:06;;;;;;;26.83;13.48;;;15.30;99.90;;;;;;5021542;28;20061;-68
2023/08/01 06:24:32;;;;;;;27.13;12.20;;;15.40;99.90;;;;;;5022015;28;20026;-69
2023/08/01 06:26:57;;;;;;;35.03;12.85;;;15.30;99.90;;;;;;5021539;28;20021;-69
2023/08/01 06:29:24;;;;;;;33.97;13.75;;;15.40;99.90;;;;;;5022858;28;20034;-69
2023/08/01 06:31:50;;;;;;;35.28;13.85;;;15.40;99.90;;;;;;5025472;28;20497;-70
2023/08/01 06:34:16;;;;;;;32.88;14.32;;;15.40;99.90;;;;;;5025729;28;20042;-69
2023/08/01 06:36:41;;;;;;;32.80;14.25;;;15.40;99.90;;;;;;5025237;28;20061;-69
2023/08/01 06:39:07;;;;;;;38.67;14.00;;;15.40;99.90;;;;;;5025251;28;20608;-68
2023/08/01 06:41:33;;;;;;;36.55;14.55;;;15.40;99.90;;;;;;5025526;28;20021;-69
2023/08/01 06:43:58;;;;;;;32.00;13.65;;;15.40;99.90;;;;;;5025140;28;20025;-69
2023/08/01 06:46:24;;;;;;;33.28;13.95;;;15.40;99.90;;;;;;5025249;28;20041;-69
2023/08/01 06:48:49;;;;;;;40.60;14.55;;;15.50;99.90;;;;;;5024937;28;20040;-68
2023/08/01 06:51:15;;;;;;;30.60;13.35;;;15.50;99.90;;;;;;5019418;28;20074;-70
2023/08/01 06:53:41;;;;;;;35.72;14.63;;;15.60;99.90;;;;;;5019259;28;20386;-67
2023/08/01 06:56:06;;;;;;;34.78;14.25;;;15.50;99.90;;;;;;5024372;28;20017;-68
2023/08/01 06:58:32;;;;;;;33.58;14.02;;;15.60;99.90;;;;;;5022080;28;20052;-68
2023/08/01 07:00:58;;;;;;;33.17;14.82;;;15.60;99.90;;;;;;5023338;28;20070;-68
2023/08/01 07:03:23;;;;;;;36.72;14.82;;;15.60;99.90;;;;;;5025260;28;20025;-68
2023/08/01 07:05:49;;;;;;;32.45;14.45;;;15.70;99.90;;;;;;5023121;28;20018;-68
2023/08/01 07:08:15;;;;;;;36.03;15.63;;;15.70;99.90;;;;;;5024463;28;20034;-68
2023/08/01 07:10:41;;;;;;;36.67;15.13;;;15.80;99.90;;;;;;5024474;28;20064;-69
2023/08/01 07:13:07;;;;;;;33.38;15.65;;;15.90;99.90;;;;;;5023464;28;20149;-67
2023/08/01 07:15:33;;;;;;;36.83;15.10;;;15.90;99.90;;;;;;5023990;28;20065;-68
2023/08/01 07:17:59;;;;;;;37.00;15.38;;;15.90;99.90;;;;;;5023400;28;20077;-69
2023/08/01 07:20:25;;;;;;;27.40;12.70;;;15.90;99.90;;;;;;5023751;28;20022;-69
2023/08/01 07:22:50;;;;;;;22.95;11.98;;;15.90;99.90;;;;;;5024365;28;20040;-68
2023/08/01 07:25:16;;;;;;;19.75;9.93;;;15.90;99.90;;;;;;5024147;28;20030;-69
2023/08/01 07:27:42;;;;;;;23.58;9.85;;;16.00;99.90;;;;;;5024778;28;20013;-68
2023/08/01 07:30:10;;;;;;;23.48;9.82;;;16.00;99.90;;;;;;5024550;28;20046;-68
2023/08/01 07:32:37;;;;;;;20.80;8.68;;;16.10;99.90;;;;;;5021970;28;20383;-68
2023/08/01 07:35:03;;;;;;;20.73;8.20;;;16.10;99.90;;;;;;5023848;28;20021;-69
2023/08/01 07:37:29;;;;;;;16.15;7.50;;;16.10;99.90;;;;;;5024515;28;20093;-68
2023/08/01 07:39:56;;;;;;;16.92;7.20;;;16.20;99.90;;;;;;5024484;28;20065;-71
2023/08/01 07:42:21;;;;;;;11.73;6.60;;;16.20;99.90;;;;;;5023257;28;20076;-69
2023/08/01 07:44:47;;;;;;;13.85;5.43;;;16.20;99.90;;;;;;5024431;28;20033;-69
2023/08/01 07:47:13;;;;;;;11.55;5.45;;;16.20;99.90;;;;;;5022811;28;20021;-69
2023/08/01 07:49:38;;;;;;;14.50;5.80;;;16.20;99.90;;;;;;5021582;28;20046;-70
2023/08/01 07:52:04;;;;;;;9.57;4.25;;;16.20;99.90;;;;;;5020257;28;20070;-69
2023/08/01 07:54:30;;;;;;;13.88;4.82;;;16.20;99.90;;;;;;5020248;28;20029;-69
2023/08/01 07:56:55;;;;;;;10.48;4.15;;;16.20;99.90;;;;;;5019538;28;20022;-68
2023/08/01 07:59:21;;;;;;;9.77;4.45;;;16.20;99.90;;;;;;5022942;28;20026;-69
2023/08/01 08:01:47;;;;;;;11.43;4.20;;;16.20;99.90;;;;;;5023003;28;20041;-68
2023/08/01 08:04:14;;;;;;;9.57;3.50;;;16.20;99.90;;;;;;5023167;28;20046;-69
2023/08/01 08:06:40;;;;;;;7.13;3.95;;;16.30;99.90;;;;;;5021299;28;20110;-70
2023/08/01 08:09:06;;;;;;;6.63;3.05;;;16.40;99.90;;;;;;5020288;28;20037;-69
2023/08/01 08:11:31;;;;;;;9.60;3.22;;;16.50;99.90;;;;;;5019615;28;20040;-69
2023/08/01 08:13:57;;;;;;;6.82;3.00;;;16.60;99.90;;;;;;5020936;28;20066;-69
2023/08/01 08:16:23;;;;;;;7.85;3.10;;;16.60;99.90;;;;;;5022228;28;21067;-70
2023/08/01 08:18:48;;;;;;;5.93;2.88;;;16.60;99.90;;;;;;5022580;28;20514;-71
2023/08/01 08:21:14;;;;;;;8.77;3.38;;;16.60;99.90;;;;;;5022859;28;20401;-70
2023/08/01 08:23:39;;;;;;;14.05;3.08;;;16.60;99.90;;;;;;5020036;28;20084;-71
2023/08/01 08:26:06;;;;;;;7.90;3.35;;;16.70;99.90;;;;;;5021885;28;20032;-70
2023/08/01 08:28:33;;;;;;;6.72;2.80;;;16.80;99.90;;;;;;5023384;28;20037;-70
2023/08/01 08:31:01;;;;;;;8.27;3.25;;;16.80;99.90;;;;;;5022418;28;20069;-71
2023/08/01 08:33:27;;;;;;;6.88;2.92;;;16.90;99.90;;;;;;5023281;28;20034;-69
2023/08/01 08:35:52;;;;;;;7.45;3.03;;;16.90;99.90;;;;;;5021131;28;20029;-71
2023/08/01 08:38:21;;;;;;;8.13;2.95;;;16.90;99.90;;;;;;5021961;28;20034;-71
2023/08/01 08:41:10;;;;;;;7.15;2.83;;;17.00;99.90;;;;;;5021183;28;20045;-70
2023/08/01 08:43:36;;;;;;;8.68;3.83;;;17.00;99.90;;;;;;5021804;28;20102;-72
2023/08/01 08:46:04;;;;;;;8.30;3.55;;;17.10;99.90;;;;;;5022966;28;20022;-70
2023/08/01 08:48:30;;;;;;;11.25;3.80;;;17.10;99.90;;;;;;5022111;28;20142;-73
2023/08/01 08:51:01;;;;;;;10.02;3.55;;;17.20;99.90;;;;;;5021269;28;20050;-71
2023/08/01 08:53:27;;;;;;;9.77;3.55;;;17.20;99.90;;;;;;5022551;28;20566;-69
2023/08/01 08:55:53;;;;;;;9.77;3.38;;;17.30;99.90;;;;;;5022848;28;20026;-72
2023/08/01 08:58:19;;;;;;;8.07;2.83;;;17.30;99.90;;;;;;5021026;28;20029;-72
2023/08/01 09:00:45;;;;;;;6.93;2.55;;;17.50;99.90;;;;;;5021321;28;20029;-72
2023/08/01 09:03:11;;;;;;;5.57;2.58;;;17.60;99.90;;;;;;5020324;28;20030;-72
2023/08/01 09:05:46;;;;;;;4.47;2.40;;;17.70;99.90;;;;;;5022558;28;20072;-71
2023/08/01 09:08:17;;;;;;;4.40;2.47;;;17.70;99.90;;;;;;5021786;28;20028;-71
2023/08/01 09:10:43;;;;;;;7.07;2.67;;;17.80;99.90;;;;;;5017854;28;20917;-72
2023/08/01 09:13:09;;;;;;;7.93;2.45;;;17.80;99.90;;;;;;5025950;28;20070;-71
2023/08/01 09:15:36;;;;;;;8.52;2.70;;;17.80;99.90;;;;;;5018821;28;20029;-70
2023/08/01 09:18:06;;;;;;;3.83;2.20;;;17.90;99.90;;;;;;5022320;28;20529;-69
2023/08/01 09:20:49;;;;;;;7.32;2.22;;;18.00;99.90;;;;;;5019455;28;20092;-70
2023/08/01 09:23:16;;;;;;;6.53;2.15;;;18.10;99.90;;;;;;5022202;28;20066;-70
2023/08/01 09:25:43;;;;;;;6.65;1.80;;;18.00;99.90;;;;;;5021559;28;20022;-71
2023/08/01 09:28:18;;;;;;;3.38;1.80;;;18.00;99.90;;;;;;5022849;28;20025;-71
2023/08/01 09:30:49;;;;;;;5.93;1.92;;;18.00;99.90;;;;;;5020013;28;20038;-70
2023/08/01 09:33:15;;;;;;;3.90;1.60;;;18.20;99.90;;;;;;5018645;28;20041;-74
2023/08/01 09:35:41;;;;;;;4.95;1.63;;;18.20;99.90;;;;;;5020823;28;20450;-70
2023/08/01 09:38:06;;;;;;;2.58;1.20;;;18.10;99.90;;;;;;5020810;28;20479;-72
2023/08/01 09:40:39;;;;;;;6.82;1.60;;;18.20;99.90;;;;;;5020597;28;20026;-71
2023/08/01 09:43:04;;;;;;;2.90;1.50;;;18.30;99.90;;;;;;5016772;28;20040;-72
2023/08/01 09:45:30;;;;;;;3.85;1.20;;;18.30;99.90;;;;;;5020100;28;20037;-69
2023/08/01 09:47:56;;;;;;;3.55;1.50;;;18.20;99.90;;;;;;5021669;28;20024;-72
2023/08/01 09:50:23;;;;;;;2.92;1.33;;;18.20;99.90;;;;;;5021239;28;20042;-71
2023/08/01 09:52:54;;;;;;;3.95;1.60;;;18.20;99.90;;;;;;5020767;28;20046;-72
2023/08/01 09:55:33;;;;;;;2.85;1.40;;;18.20;99.90;;;;;;5020087;28;20081;-70
2023/08/01 09:58:00;;;;;;;2.78;1.38;;;18.20;99.90;;;;;;5018405;28;20037;-70
2023/08/01 10:00:29;;;;;;;4.10;1.60;;;18.10;99.90;;;;;;5019423;28;20080;-73
2023/08/01 10:03:02;;;;;;;3.85;1.58;;;17.90;99.90;;;;;;5018133;28;20034;-72
2023/08/01 10:05:31;;;;;;;2.78;1.50;;;17.80;99.90;;;;;;5017691;28;20089;-71
2023/08/01 10:07:59;;;;;;;4.30;1.60;;;17.90;99.90;;;;;;5020750;28;20045;-71
2023/08/01 10:10:25;;;;;;;2.47;1.30;;;17.80;99.90;;;;;;5021247;28;20038;-74
2023/08/01 10:12:53;;;;;;;5.80;1.40;;;17.80;99.90;;;;;;5022017;28;20080;-69
2023/08/01 10:15:19;;;;;;;5.32;1.80;;;17.90;99.90;;;;;;5015544;28;20018;-70
2023/08/01 10:17:44;;;;;;;5.25;1.77;;;17.90;99.90;;;;;;5014826;28;20097;-73
2023/08/01 10:20:12;;;;;;;5.38;1.80;;;18.00;99.90;;;;;;5017210;28;20030;-69
2023/08/01 10:22:39;;;;;;;4.32;1.48;;;18.10;99.90;;;;;;5017080;28;20123;-73
2023/08/01 10:25:06;;;;;;;4.22;1.67;;;18.10;99.90;;;;;;5018876;28;20034;-75
2023/08/01 10:27:31;;;;;;;3.88;1.35;;;18.20;99.90;;;;;;5014600;28;20116;-72
2023/08/01 10:30:02;;;;;;;6.20;2.13;;;18.30;99.90;;;;;;5019697;28;20507;-71
2023/08/01 10:32:35;;;;;;;3.67;1.40;;;18.40;99.90;;;;;;5018399;28;20029;-74
2023/08/01 10:35:01;;;;;;;5.50;1.80;;;18.40;99.90;;;;;;5016055;28;20030;-71
2023/08/01 10:37:38;;;;;;;3.80;1.60;;;18.50;99.90;;;;;;5017148;28;20041;-71
2023/08/01 10:40:05;;;;;;;8.55;1.77;;;18.50;99.90;;;;;;5020394;28;20033;-72
2023/08/01 10:42:42;;;;;;;3.95;1.65;;;18.30;99.90;;;;;;5017509;28;20120;-73
2023/08/01 10:45:21;;;;;;;5.07;1.95;;;18.10;99.90;;;;;;5015351;28;20042;-74
2023/08/01 10:47:48;;;;;;;4.05;1.42;;;17.90;99.90;;;;;;5019944;28;20121;-74
2023/08/01 10:50:15;;;;;;;3.53;1.67;;;17.70;99.90;;;;;;5020278;28;20034;-71
2023/08/01 10:52:41;;;;;;;3.10;1.60;;;17.50;99.90;;;;;;5020111;28;20053;-73
2023/08/01 10:55:08;;;;;;;3.88;1.52;;;17.40;99.90;;;;;;5021179;28;20125;-71
2023/08/01 10:57:36;;;;;;;4.57;2.00;;;17.30;99.90;;;;;;5018347;28;20487;-72
2023/08/01 11:00:09;;;;;;;5.90;2.20;;;17.20;99.90;;;;;;5018009;28;20018;-77
2023/08/01 11:02:35;;;;;;;7.00;2.30;;;17.10;99.90;;;;;;5019503;28;20029;-74
2023/08/01 11:05:04;;;;;;;6.50;2.08;;;17.00;99.90;;;;;;5019023;28;20058;-73
2023/08/01 11:07:30;;;;;;;6.82;2.60;;;17.00;99.90;;;;;;5020628;28;20022;-73
2023/08/01 11:10:09;;;;;;;4.15;2.47;;;17.10;99.90;;;;;;5020124;28;20475;-71
2023/08/01 11:12:43;;;;;;;5.05;2.20;;;17.10;99.90;;;;;;5018641;28;20030;-73
2023/08/01 11:15:11;;;;;;;5.15;2.03;;;17.20;99.90;;;;;;5020525;28;20034;-71
2023/08/01 11:17:38;;;;;;;4.18;1.92;;;17.30;99.90;;;;;;5022384;28;20530;-71
2023/08/01 11:20:08;;;;;;;7.28;2.45;;;17.50;99.90;;;;;;5022125;28;20028;-69
2023/08/01 11:22:54;;;;;;;3.75;1.80;;;17.60;99.90;;;;;;5023331;28;20030;-74
2023/08/01 11:25:31;;;;;;;4.80;1.83;;;17.80;99.90;;;;;;5022896;28;20061;-69
2023/08/01 11:27:57;;;;;;;3.17;1.70;;;18.00;99.90;;;;;;5022209;28;20522;-72
2023/08/01 11:30:31;;;;;;;2.95;1.40;;;18.20;99.90;;;;;;5023844;28;20057;-73
2023/08/01 11:32:57;;;;;;;;;;;18.50;99.90;;;;;;5012607;28;20026;-73
2023/08/01 11:35:23;;;;;;;2.95;1.20;;;18.50;99.90;;;;;;5014554;28;19912;-70
2023/08/01 11:37:50;;;;;;;3.60;1.25;;;18.50;99.90;;;;;;5013537;28;20026;-69
2023/08/01 11:40:17;;;;;;;3.83;1.38;;;18.30;99.90;;;;;;5020363;28;22112;-74
2023/08/01 11:42:42;;;;;;;4.63;1.17;;;18.10;99.90;;;;;;5019539;28;20082;-76
2023/08/01 11:45:12;;;;;;;3.30;1.33;;;18.00;99.90;;;;;;5018369;28;20508;-73
2023/08/01 11:47:44;;;;;;;2.92;1.30;;;17.90;99.90;;;;;;5022387;28;20072;-70
2023/08/01 11:50:09;;;;;;;3.63;0.93;;;18.10;99.90;;;;;;5021473;28;20068;-72
2023/08/01 11:52:35;;;;;;;3.17;1.10;;;18.40;99.90;;;;;;5021395;28;20041;-71
2023/08/01 11:55:01;;;;;;;3.35;1.20;;;18.50;99.90;;;;;;5022857;28;20022;-72
2023/08/01 11:57:27;;;;;;;5.10;1.17;;;18.60;99.90;;;;;;5022745;28;20088;-69
2023/08/01 11:59:55;;;;;;;3.28;1.10;;;18.60;99.90;;;;;;5023316;28;20053;-70
2023/08/01 12:02:25;;;;;;;7.35;1.20;;;18.60;99.90;;;;;;5022716;28;20030;-69
2023/08/01 12:04:52;;;;;;;1.50;1.00;;;18.50;99.90;;;;;;5021838;28;20057;-70
2023/08/01 12:07:18;;;;;;;2.25;1.20;;;18.40;99.90;;;;;;5020301;28;20026;-73
2023/08/01 12:09:54;;;;;;;3.00;1.20;;;18.20;99.90;;;;;;5020742;28;20126;-72
2023/08/01 12:12:20;;;;;;;3.50;1.40;;;18.10;99.90;;;;;;5021298;28;20053;-73
2023/08/01 12:14:45;;;;;;;3.75;1.50;;;17.80;99.90;;;;;;5021274;28;20029;-71
2023/08/01 12:17:11;;;;;;;3.63;1.45;;;17.70;99.90;;;;;;5021198;28;20025;-72
2023/08/01 12:19:36;;;;;;;3.35;1.50;;;17.50;99.90;;;;;;5021009;28;20033;-73
2023/08/01 12:22:02;;;;;;;2.28;1.40;;;17.30;99.90;;;;;;5019899;28;20030;-71
2023/08/01 12:24:28;;;;;;;5.10;1.38;;;17.10;99.90;;;;;;5019811;28;20033;-71
2023/08/01 12:26:53;;;;;;;3.22;1.70;;;17.00;99.90;;;;;;5020972;28;20026;-75
2023/08/01 12:29:19;;;;;;;4.80;1.50;;;17.10;99.90;;;;;;5020755;28;20045;-74
2023/08/01 12:31:45;;;;;;;4.35;1.80;;;17.20;99.90;;;;;;5021268;28;20022;-73